createdAt,value
2022-12-22T00:00:43.381Z,36.30
2022-12-22T00:05:07.145Z,33.80
2022-12-22T00:09:29.709Z,33.57
2022-12-22T00:13:50.930Z,35.77
2022-12-22T00:18:13.163Z,36.90
2022-12-22T00:22:39.224Z,34.30
2022-12-22T00:27:02.479Z,35.60
2022-12-22T00:31:23.937Z,31.30
2022-12-22T00:35:45.224Z,36.60
2022-12-22T00:40:06.652Z,35.80
2022-12-22T00:44:27.630Z,35.97
2022-12-22T00:48:50.484Z,33.77
2022-12-22T00:53:11.059Z,34.53
2022-12-22T00:57:38.762Z,39.17
2022-12-22T01:02:26.786Z,33.90
2022-12-22T01:06:53.317Z,31.77
2022-12-22T01:11:14.171Z,30.87
2022-12-22T01:15:37.322Z,29.10
2022-12-22T01:19:58.003Z,30.20
2022-12-22T01:24:20.108Z,31.27
2022-12-22T01:28:41.165Z,31.70
2022-12-22T01:33:01.807Z,34.10
2022-12-22T01:37:22.913Z,31.43
2022-12-22T01:41:46.097Z,32.40
2022-12-22T01:46:07.830Z,31.30
2022-12-22T01:50:28.452Z,31.47
2022-12-22T01:54:49.390Z,30.90
2022-12-22T01:59:14.522Z,35.43
2022-12-22T02:03:36.024Z,34.37
2022-12-22T02:08:16.099Z,36.27
2022-12-22T02:12:44.293Z,35.50
2022-12-22T02:17:12.667Z,31.80
2022-12-22T02:21:39.747Z,33.00
2022-12-22T02:26:08.748Z,32.10
2022-12-22T02:30:32.128Z,31.57
2022-12-22T02:34:53.026Z,30.07
2022-12-22T02:39:26.371Z,33.70
2022-12-22T02:44:03.734Z,28.67
2022-12-22T02:48:26.689Z,29.90
2022-12-22T02:52:54.007Z,31.10
2022-12-22T02:57:15.314Z,28.43
2022-12-22T03:01:36.389Z,31.60
2022-12-22T03:05:57.552Z,30.20
2022-12-22T03:10:19.866Z,26.37
2022-12-22T03:14:40.912Z,27.17
2022-12-22T03:19:02.068Z,30.93
2022-12-22T03:23:24.626Z,32.50
2022-12-22T03:27:29.276Z,28.90
2022-12-22T03:31:32.709Z,26.90
2022-12-22T03:35:35.994Z,31.10
2022-12-22T03:39:39.684Z,26.60
2022-12-22T03:44:02.031Z,28.87
2022-12-22T03:48:05.762Z,29.63
2022-12-22T03:52:09.041Z,28.87
2022-12-22T03:56:12.464Z,28.27
2022-12-22T04:00:18.256Z,30.77
2022-12-22T04:04:23.797Z,29.33
2022-12-22T04:08:27.082Z,29.87
2022-12-22T04:12:47.713Z,30.27
2022-12-22T04:16:52.736Z,30.10
2022-12-22T04:21:29.691Z,30.03
2022-12-22T04:25:33.078Z,30.57
2022-12-22T04:29:36.290Z,30.57
2022-12-22T04:33:41.090Z,34.87
2022-12-22T04:37:44.411Z,27.40
2022-12-22T04:41:47.728Z,27.37
2022-12-22T04:45:54.573Z,27.60
2022-12-22T04:49:59.955Z,27.10
2022-12-22T04:54:03.232Z,26.20
2022-12-22T04:58:06.730Z,24.60
2022-12-22T05:02:10.917Z,27.23
2022-12-22T05:06:16.018Z,24.30
2022-12-22T05:10:19.354Z,23.90
2022-12-22T05:14:22.716Z,19.33
2022-12-22T05:18:25.944Z,24.47
2022-12-22T05:22:30.526Z,24.53
2022-12-22T05:26:33.798Z,21.73
2022-12-22T05:30:37.229Z,19.70
2022-12-22T05:34:40.599Z,21.23
2022-12-22T05:38:45.752Z,19.63
2022-12-22T05:42:48.983Z,18.00
2022-12-22T05:46:53.247Z,19.80
2022-12-22T05:50:56.667Z,18.33
2022-12-22T05:55:01.389Z,17.73
2022-12-22T05:59:07.645Z,15.47
2022-12-22T06:03:11.226Z,17.87
2022-12-22T06:07:14.580Z,16.97
2022-12-22T06:11:19.963Z,16.70
2022-12-22T06:15:23.204Z,15.47
2022-12-22T06:19:28.078Z,18.33
2022-12-22T06:23:32.345Z,17.17
2022-12-22T06:27:37.228Z,15.87
2022-12-22T06:31:41.003Z,17.10
2022-12-22T06:35:44.589Z,17.60
2022-12-22T06:39:48.403Z,12.97
2022-12-22T06:43:54.316Z,16.33
2022-12-22T06:47:57.689Z,16.50
2022-12-22T06:52:01.252Z,14.40
2022-12-22T06:56:04.532Z,17.50
2022-12-22T07:00:11.097Z,19.00
2022-12-22T07:04:19.864Z,18.13
2022-12-22T07:08:23.378Z,19.90
2022-12-22T07:12:26.717Z,18.90
2022-12-22T07:16:31.338Z,19.13
2022-12-22T07:20:35.128Z,20.00
2022-12-22T07:24:38.414Z,20.17
2022-12-22T07:28:43.314Z,20.10
2022-12-22T07:32:48.015Z,21.13
2022-12-22T07:36:52.456Z,22.17
2022-12-22T07:41:04.487Z,21.83
2022-12-22T07:45:09.098Z,21.50
2022-12-22T07:49:32.132Z,22.77
2022-12-22T07:53:36.052Z,24.70
2022-12-22T07:57:39.640Z,24.20
2022-12-22T08:01:43.564Z,21.57
2022-12-22T08:05:48.550Z,22.43
2022-12-22T08:10:01.074Z,21.23
2022-12-22T08:14:04.441Z,22.43
2022-12-22T08:18:07.896Z,23.93
2022-12-22T08:22:12.964Z,23.33
2022-12-22T08:26:19.471Z,20.67
2022-12-22T08:30:25.100Z,23.13
2022-12-22T08:34:53.229Z,22.30
2022-12-22T08:39:06.324Z,22.93
2022-12-22T08:43:11.453Z,21.77
2022-12-22T08:47:18.686Z,21.80
2022-12-22T08:51:22.869Z,18.73
2022-12-22T08:55:32.397Z,20.87
2022-12-22T08:59:36.270Z,19.40
2022-12-22T09:03:40.098Z,17.80
2022-12-22T09:07:43.729Z,17.63
2022-12-22T09:11:50.004Z,19.50
2022-12-22T09:15:54.481Z,16.90
2022-12-22T09:20:17.972Z,16.60
2022-12-22T09:24:22.066Z,16.60
2022-12-22T09:28:26.936Z,19.37
2022-12-22T09:32:32.516Z,19.10
2022-12-22T09:36:36.092Z,18.17
2022-12-22T09:40:50.609Z,20.33
2022-12-22T09:44:56.918Z,20.07
2022-12-22T09:49:13.911Z,17.90
2022-12-22T09:53:26.743Z,19.63
2022-12-22T09:57:32.540Z,20.00
2022-12-22T10:02:06.482Z,18.63
2022-12-22T10:07:26.640Z,21.13
2022-12-22T10:11:28.133Z,23.43
2022-12-22T10:15:49.873Z,23.47
2022-12-22T10:20:08.594Z,16.97
2022-12-22T10:24:20.519Z,16.83
2022-12-22T10:28:30.608Z,17.03
2022-12-22T10:32:49.591Z,15.60
2022-12-22T10:36:59.392Z,18.37
2022-12-22T10:41:06.372Z,16.73
2022-12-22T10:45:19.371Z,18.63
2022-12-22T10:49:25.547Z,19.30
2022-12-22T10:53:50.670Z,18.27
2022-12-22T10:58:07.453Z,20.63
2022-12-22T11:02:31.265Z,19.50
2022-12-22T11:06:35.022Z,19.07
2022-12-22T11:10:45.178Z,19.47
2022-12-22T11:14:57.885Z,17.40
2022-12-22T11:19:13.293Z,16.50
2022-12-22T11:23:24.124Z,17.23
2022-12-22T11:27:45.741Z,15.77
2022-12-22T11:32:01.678Z,18.67
2022-12-22T11:36:07.338Z,18.40
2022-12-22T11:40:22.670Z,27.90
2022-12-22T11:44:41.229Z,25.00
2022-12-22T11:49:14.798Z,27.53
2022-12-22T11:53:39.806Z,28.10
2022-12-22T11:57:56.534Z,27.93
2022-12-22T12:02:21.043Z,27.70
2022-12-22T12:06:57.509Z,27.70
2022-12-22T12:11:18.361Z,25.00
2022-12-22T12:15:32.736Z,26.67
2022-12-22T12:19:53.882Z,29.00
2022-12-22T12:24:36.957Z,29.30
2022-12-22T12:28:54.954Z,28.53
2022-12-22T12:33:03.028Z,26.40
2022-12-22T12:37:20.244Z,25.87
2022-12-22T12:41:35.284Z,27.13
2022-12-22T12:45:41.342Z,25.70
2022-12-22T12:50:05.841Z,27.10
2022-12-22T12:54:40.023Z,24.53
2022-12-22T12:59:05.285Z,25.13
2022-12-22T13:03:25.289Z,24.70
2022-12-22T13:08:14.496Z,22.30
2022-12-22T13:12:41.204Z,23.20
2022-12-22T13:16:47.266Z,21.80
2022-12-22T13:21:12.344Z,23.90
2022-12-22T13:25:20.916Z,24.77
2022-12-22T13:29:46.029Z,21.47
2022-12-22T13:33:59.979Z,24.83
2022-12-22T13:38:03.938Z,21.37
2022-12-22T13:42:09.007Z,21.83
2022-12-22T13:46:13.974Z,21.60
2022-12-22T13:50:24.440Z,22.43
2022-12-22T13:54:33.266Z,22.80
2022-12-22T13:58:40.337Z,22.67
2022-12-22T14:02:46.482Z,23.70
2022-12-22T14:06:50.000Z,23.37
2022-12-22T14:10:55.350Z,23.57
2022-12-22T14:15:01.356Z,24.17
2022-12-22T14:19:06.799Z,22.47
2022-12-22T14:23:21.021Z,24.30
2022-12-22T14:27:34.348Z,26.93
2022-12-22T14:31:53.061Z,25.43
2022-12-22T14:36:16.407Z,27.67
2022-12-22T14:40:31.573Z,25.90
2022-12-22T14:44:44.652Z,26.17
2022-12-22T14:48:48.820Z,25.87
2022-12-22T14:52:57.211Z,20.53
2022-12-22T14:57:03.728Z,17.70
2022-12-22T15:01:17.763Z,15.40
2022-12-22T15:05:28.560Z,16.50
2022-12-22T15:10:13.272Z,15.20
2022-12-22T15:13:57.624Z,14.30
2022-12-22T15:18:04.125Z,15.63
2022-12-22T15:22:09.158Z,14.73
2022-12-22T15:26:13.816Z,13.80
2022-12-22T15:30:19.306Z,13.00
2022-12-22T15:34:26.000Z,13.83
2022-12-22T15:38:35.068Z,12.20
2022-12-22T15:42:43.242Z,14.40
2022-12-22T15:46:52.753Z,12.17
2022-12-22T15:50:57.260Z,13.70
2022-12-22T15:55:01.889Z,13.67
2022-12-22T15:59:06.943Z,13.07
2022-12-22T16:03:13.421Z,14.17
2022-12-22T16:07:17.167Z,16.23
2022-12-22T16:11:20.782Z,16.33
2022-12-22T16:15:26.059Z,17.73
2022-12-22T16:19:29.690Z,18.10
2022-12-22T16:23:33.482Z,21.97
2022-12-22T17:02:35.589Z,24.43
2022-12-22T17:06:40.100Z,23.43
2022-12-22T17:10:43.786Z,23.67
2022-12-22T17:14:48.027Z,24.50
2022-12-22T17:18:52.878Z,23.60
2022-12-22T17:22:58.754Z,22.70
2022-12-22T17:27:06.849Z,21.60
2022-12-22T17:31:16.335Z,20.63
2022-12-22T17:35:24.840Z,22.60
2022-12-22T17:39:28.875Z,22.90
2022-12-22T17:43:32.512Z,24.10
2022-12-22T17:47:42.355Z,23.73
2022-12-22T17:51:48.374Z,23.00
2022-12-22T17:56:09.052Z,24.20
2022-12-22T18:00:19.405Z,26.27
2022-12-22T18:04:22.822Z,26.90
2022-12-22T18:08:27.852Z,24.37
2022-12-22T18:12:31.221Z,24.30
2022-12-22T18:16:36.913Z,22.60
2022-12-22T18:20:40.539Z,21.47
2022-12-22T18:24:45.756Z,21.93
2022-12-22T18:28:50.517Z,22.60
2022-12-22T18:32:55.309Z,23.87
2022-12-22T18:36:59.481Z,25.60
2022-12-22T18:41:04.356Z,24.53
2022-12-22T18:45:11.211Z,22.90
2022-12-22T18:49:15.338Z,27.77
2022-12-22T18:53:31.273Z,22.67
2022-12-22T18:57:36.021Z,27.67
2022-12-22T19:01:39.827Z,24.07
2022-12-22T19:05:44.894Z,26.57
2022-12-22T19:09:49.887Z,24.33
2022-12-22T19:14:28.529Z,23.87
2022-12-22T19:18:34.120Z,24.60
2022-12-22T19:22:40.838Z,25.27
2022-12-22T19:26:45.884Z,26.10
2022-12-22T19:31:00.785Z,24.00
2022-12-22T19:35:08.453Z,24.13
2022-12-22T19:39:29.802Z,23.80
2022-12-22T19:43:35.195Z,21.80
2022-12-22T19:47:39.807Z,21.50
2022-12-22T19:51:44.722Z,25.47
2022-12-22T19:55:52.579Z,23.30
2022-12-22T19:59:56.669Z,22.57
2022-12-22T20:04:02.112Z,24.87
2022-12-22T20:08:09.394Z,22.70
2022-12-22T20:12:28.433Z,19.50
2022-12-22T20:16:36.271Z,20.60
2022-12-22T20:20:43.119Z,22.17
2022-12-22T20:24:53.841Z,22.50
2022-12-22T20:29:00.994Z,19.10
2022-12-22T20:33:09.199Z,19.80
2022-12-22T20:37:23.666Z,20.90
2022-12-22T20:41:35.550Z,18.47
2022-12-22T20:45:42.231Z,21.17
2022-12-22T20:49:46.909Z,20.50
2022-12-22T20:53:50.726Z,20.67
2022-12-22T20:57:56.795Z,22.43
2022-12-22T21:02:01.137Z,24.10
2022-12-22T21:06:23.535Z,22.80
2022-12-22T21:10:27.519Z,24.30
2022-12-22T21:14:35.789Z,25.50
2022-12-22T21:18:40.641Z,24.73
2022-12-22T21:22:45.164Z,24.47
2022-12-22T21:26:53.716Z,23.33
2022-12-22T21:30:57.374Z,23.80
2022-12-22T21:35:07.971Z,23.00
2022-12-22T21:39:20.315Z,20.17
2022-12-22T21:43:23.940Z,21.90
2022-12-22T21:47:29.427Z,23.93
2022-12-22T21:51:34.378Z,23.60
2022-12-22T21:55:40.681Z,23.40
2022-12-22T21:59:44.316Z,22.17
2022-12-22T22:03:47.662Z,23.20
2022-12-22T22:07:54.507Z,24.57
2022-12-22T22:12:15.339Z,21.07
2022-12-22T22:16:19.262Z,24.30
2022-12-22T22:20:25.870Z,21.70
2022-12-22T22:24:31.931Z,20.60
2022-12-22T22:28:36.912Z,21.27
2022-12-22T22:37:18.258Z,18.23
2022-12-22T22:41:23.484Z,18.97
2022-12-22T22:45:28.213Z,18.17
2022-12-22T22:49:32.132Z,19.83
2022-12-22T22:53:36.728Z,16.30
2022-12-22T22:57:42.633Z,18.60
2022-12-22T23:01:46.364Z,16.30
2022-12-22T23:05:49.764Z,15.70
2022-12-22T23:09:54.214Z,15.60
2022-12-22T23:14:00.006Z,16.70
2022-12-22T23:18:03.439Z,14.03
2022-12-22T23:22:07.017Z,13.17
2022-12-22T23:26:11.167Z,15.97
2022-12-22T23:30:16.758Z,14.53
2022-12-22T23:34:20.223Z,13.10
2022-12-22T23:38:23.847Z,11.90
2022-12-22T23:42:33.410Z,12.70
2022-12-22T23:46:38.233Z,11.37
2022-12-22T23:50:47.736Z,13.20
2022-12-22T23:54:51.201Z,13.23
2022-12-22T23:58:55.359Z,14.10
